Bookmark and Share
Track history (hours):
 

Betagas

Last reported at 2014-Apr-22 20:06 UTC. Time now 2014-Apr-23 06:58 UTC.
Position N 51°46' E 003°19'.

Length 114.6 m; beam 15.7 m; draft 7.4 m.

Type: Tanker. MMSI: 304050636.

NotesDate/timePositionNaut miles runAvg speedWind from/ knotsBaromVisibWave heightAir tempDewpointWater temp
2014-Apr-22 20:06N 51°46' E 003°19'0 0.0
2014-Apr-22 19:27N 51°46' E 003°19'0 0.0
2014-Apr-22 18:29N 51°46' E 003°19'119 5.9
2014-Apr-21 22:30N 53°31' E 004°50'1010.3
2014-Apr-21 21:33N 53°34' E 005°05'1110.8
2014-Apr-21 20:33N 53°38' E 005°22'1211.8
2014-Apr-21 19:33N 53°42' E 005°41'1312.6
2014-Apr-21 18:32N 53°46' E 006°02'3912.4
2014-Apr-21 15:23N 53°56' E 007°05'911.1
2014-Apr-21 14:33N 53°58' E 007°21'1110.7
2014-Apr-21 13:33N 54°01' E 007°38'1110.7
2014-Apr-21 12:33N 54°02' E 007°57'1110.6
2014-Apr-21 11:33N 54°01' E 008°15'1515.0
2014-Apr-21 10:33N 53°57' E 008°39'1515.2
2014-Apr-21 09:33N 53°52' E 009°04'1414.4
2014-Apr-21 08:33N 53°45' E 009°25'7 6.6
2014-Apr-21 07:31N 53°39' E 009°31'0 0.0
2014-Apr-21 06:31N 53°39' E 009°31'0 0.0
2014-Apr-21 05:33N 53°39' E 009°31'0 0.0
2014-Apr-21 04:30N 53°39' E 009°31'0 0.0
2014-Apr-21 03:32N 53°39' E 009°31'0 0.0
2014-Apr-21 02:32N 53°39' E 009°31'0 0.0
2014-Apr-21 01:26N 53°39' E 009°31'0 0.0
2014-Apr-21 00:31N 53°39' E 009°31'0 0.0
2014-Apr-20 23:28N 53°39' E 009°31'0 0.0
2014-Apr-20 22:30N 53°39' E 009°31'0 0.0
2014-Apr-20 21:33N 53°39' E 009°31'0 0.0
2014-Apr-20 20:32N 53°39' E 009°31'0 0.0
2014-Apr-20 19:32N 53°39' E 009°31'0 0.0
2014-Apr-20 18:29N 53°39' E 009°31'0 0.0
2014-Apr-20 17:31N 53°39' E 009°31'0 0.0
2014-Apr-20 16:25N 53°39' E 009°31'0 0.0
2014-Apr-20 15:33N 53°39' E 009°31'0 0.0
2014-Apr-20 14:33N 53°39' E 009°31'0 0.0
2014-Apr-20 13:20N 53°39' E 009°31'0 0.0
2014-Apr-20 12:32N 53°39' E 009°31'0 0.1
2014-Apr-20 11:33N 53°39' E 009°31'7 7.4
2014-Apr-20 10:33N 53°45' E 009°24'1110.7
2014-Apr-20 09:33N 53°53' E 009°11'10 9.7
2014-Apr-20 08:33N 53°51' E 008°55'9 8.9
2014-Apr-20 07:33N 53°54' E 008°41'1010.4
2014-Apr-20 06:33N 53°59' E 008°26'1211.9
2014-Apr-20 05:32N 53°59' E 008°05'1111.6
2014-Apr-20 04:33N 53°57' E 007°46'1010.2
2014-Apr-20 03:33N 53°54' E 007°29'1110.6
2014-Apr-20 02:33N 53°52' E 007°12'1111.1
2014-Apr-20 01:32N 53°49' E 006°53'2311.5
2014-Apr-19 23:33N 53°44' E 006°16'1211.7
2014-Apr-19 22:33N 53°40' E 005°57'1211.6
2014-Apr-19 21:33N 53°37' E 005°39'1211.6
2014-Apr-19 20:33N 53°33' E 005°20'1211.6
2014-Apr-19 19:33N 53°29' E 005°02'1111.3
2014-Apr-19 18:33N 53°24' E 004°44'3510.4
2014-Apr-19 15:12N 52°54' E 004°17'10 9.9
2014-Apr-19 14:13N 52°45' E 004°09'7 9.9
2014-Apr-19 13:32N 52°40' E 004°01'1110.1
2014-Apr-19 12:29N 52°32' E 003°50'59 9.8
2014-Apr-19 06:28N 51°35' E 003°24'1213.6
2014-Apr-19 05:33N 51°26' E 003°37'8 7.7
2014-Apr-19 04:32N 51°21' E 003°46'0 0.0
2014-Apr-19 03:33N 51°21' E 003°46'0 0.0
2014-Apr-19 02:27N 51°21' E 003°46'0 0.0
2014-Apr-19 01:23N 51°21' E 003°46'0 0.0
2014-Apr-19 00:32N 51°21' E 003°46'0 0.0
2014-Apr-18 23:16N 51°21' E 003°46'0 0.0
2014-Apr-18 21:21N 51°21' E 003°46'0 0.0
2014-Apr-18 19:33N 51°21' E 003°46'0 0.0
2014-Apr-18 18:26N 51°21' E 003°46'0 0.0
2014-Apr-18 17:32N 51°21' E 003°46'0 0.0
2014-Apr-18 16:22N 51°21' E 003°46'0 0.0
2014-Apr-18 15:28N 51°21' E 003°46'0 0.0
2014-Apr-18 14:31N 51°21' E 003°46'0 0.0
2014-Apr-18 13:33N 51°21' E 003°46'0 0.0
2014-Apr-18 12:17N 51°21' E 003°46'0 0.0
2014-Apr-18 11:20N 51°21' E 003°46'0 0.0
2014-Apr-18 10:05N 51°21' E 003°46'0 0.0
2014-Apr-18 08:07N 51°21' E 003°46'0 0.0
2014-Apr-18 07:30N 51°21' E 003°46'0 0.0
2014-Apr-18 06:30N 51°21' E 003°46'0 0.0
2014-Apr-18 05:33N 51°21' E 003°46'0 0.0
2014-Apr-18 04:32N 51°21' E 003°46'0 0.0
2014-Apr-18 03:32N 51°21' E 003°46'0 0.0
2014-Apr-18 02:31N 51°21' E 003°46'0 0.0
2014-Apr-18 01:07N 51°21' E 003°46'0 0.0
2014-Apr-18 00:27N 51°21' E 003°46'0 0.0
2014-Apr-17 23:27N 51°21' E 003°46'0 0.0
2014-Apr-17 20:26N 51°21' E 003°46'0 0.0
2014-Apr-17 19:25N 51°21' E 003°46'0 0.0
2014-Apr-17 18:31N 51°21' E 003°46'0 0.2
2014-Apr-17 17:34N 51°21' E 003°46'9 9.1
2014-Apr-17 16:33N 51°26' E 003°34'1312.5
2014-Apr-17 15:33N 51°36' E 003°22'11 1.2
2014-Apr-17 06:31N 51°46' E 003°13'1212.1
2014-Apr-17 05:32N 51°47' E 002°54'2410.0
2014-Apr-17 03:10N 52°02' E 002°24'16 9.8
2014-Apr-17 01:30N 52°18' E 002°16'1010.8
2014-Apr-17 00:33N 52°27' E 002°10'1111.5
2014-Apr-16 23:33N 52°38' E 002°04'1111.4
2014-Apr-16 22:33N 52°47' E 001°53'1313.0
2014-Apr-16 21:33N 52°55' E 001°36'1313.0
2014-Apr-16 20:33N 53°06' E 001°24'1412.9
2014-Apr-16 19:30N 53°18' E 001°12'2512.7
2014-Apr-16 17:32N 53°39' E 000°50'1312.9
2014-Apr-16 16:33N 53°49' E 000°37'1312.6
2014-Apr-16 15:33N 53°59' E 000°25'1212.1
2014-Apr-16 14:33N 54°10' E 000°14'1111.3
2014-Apr-16 13:33N 54°19' E 000°04'1110.6
2014-Apr-16 12:34N 54°28' W 000°05'1010.1
2014-Apr-16 11:33N 54°37' W 000°15'10 9.8
2014-Apr-16 10:33N 54°45' W 000°23'10 9.8
2014-Apr-16 09:32N 54°54' W 000°33'1110.1
2014-Apr-16 08:29N 55°03' W 000°42'1010.6
2014-Apr-16 07:32N 55°12' W 000°51'1110.8
2014-Apr-16 06:32N 55°21' W 001°01'1211.4
2014-Apr-16 05:31N 55°31' W 001°11'3012.2
2014-Apr-16 03:04N 55°53' W 001°47'612.0
2014-Apr-16 02:33N 55°58' W 001°55'1211.6
2014-Apr-16 01:33N 56°02' W 002°14'1211.5
2014-Apr-16 00:33N 56°06' W 002°33'1110.9
2014-Apr-15 23:33N 56°05' W 002°52'1110.8
2014-Apr-15 22:33N 56°02' W 003°11'1211.7
2014-Apr-15 21:33N 56°02' W 003°32'5 5.5
2014-Apr-15 20:33N 56°02' W 003°41'0 0.0
2014-Apr-15 19:31N 56°02' W 003°41'0 0.1
2014-Apr-15 18:31N 56°02' W 003°41'0 0.0
2014-Apr-15 17:31N 56°02' W 003°41'0 0.0
2014-Apr-15 16:33N 56°02' W 003°41'0 0.0
2014-Apr-15 15:33N 56°02' W 003°41'0 0.1
2014-Apr-15 14:32N 56°02' W 003°41'0 0.0
2014-Apr-15 12:32N 56°02' W 003°41'0 0.0
2014-Apr-15 10:31N 56°02' W 003°41'0 0.1
2014-Apr-15 09:32N 56°02' W 003°41'0 0.0
2014-Apr-15 08:32N 56°02' W 003°41'0 0.0
2014-Apr-15 07:31N 56°02' W 003°41'0 0.0
2014-Apr-15 06:34N 56°02' W 003°41'0 0.0
2014-Apr-15 05:33N 56°02' W 003°41'0 0.0
2014-Apr-15 03:29N 56°02' W 003°41'0 0.0
2014-Apr-15 02:32N 56°02' W 003°41'0 0.0
2014-Apr-15 00:31N 56°02' W 003°41'0 0.4
2014-Apr-14 23:34N 56°02' W 003°41'7 6.6
2014-Apr-14 22:34N 56°01' W 003°29'1313.0
2014-Apr-14 21:34N 56°04' W 003°06'4 4.0
2014-Apr-14 20:31N 56°07' W 003°04'0 0.0
2014-Apr-14 19:30N 56°08' W 003°04'0 0.0
2014-Apr-14 18:33N 56°08' W 003°04'5 5.4
2014-Apr-14 17:34N 56°07' W 002°54'1211.7
2014-Apr-14 16:34N 56°06' W 002°33'1211.8
2014-Apr-14 15:33N 56°02' W 002°13'1211.7
2014-Apr-14 14:29N 55°57' W 001°53'6110.2
2014-Apr-14 08:33N 55°02' W 001°10'1212.1
2014-Apr-14 07:33N 54°50' W 001°07'1111.0
2014-Apr-14 06:32N 54°38' W 001°09'2 0.3
2014-Apr-13 22:08N 54°36' W 001°10'0 0.0
2014-Apr-13 20:28N 54°36' W 001°10'0 0.0
2014-Apr-13 19:33N 54°36' W 001°10'0 0.0
2014-Apr-13 17:14N 54°36' W 001°10'0 0.0
2014-Apr-13 16:32N 54°36' W 001°10'0 0.0
2014-Apr-13 15:32N 54°36' W 001°10'0 0.0
2014-Apr-13 14:25N 54°36' W 001°10'0 0.0
2014-Apr-13 13:19N 54°36' W 001°10'0 0.0
2014-Apr-13 12:24N 54°36' W 001°10'0 0.0
2014-Apr-13 11:21N 54°36' W 001°10'0 0.0
2014-Apr-13 10:33N 54°36' W 001°10'0 0.0
2014-Apr-13 09:13N 54°36' W 001°10'4 6.2
2014-Apr-13 08:33N 54°40' W 001°07'2311.5
2014-Apr-13 06:33N 54°37' W 000°27'1111.3
2014-Apr-13 05:33N 54°35' W 000°08'1110.6
2014-Apr-13 04:33N 54°33' E 000°10'1010.3
2014-Apr-13 03:33N 54°31' E 000°27'1010.3
2014-Apr-13 02:33N 54°29' E 000°45'  

Dump ship's entire track history

sailing weather and tide predictions

Betagas — V2KA8 — position and weather